Saint-Pie, Canada
Current Conditions -  °F | °C
As of 4:32 PM on Saturday 20 Dec 2014 (Local Time) from CYHU Reporting Station
Haze Haze  
Wind Chill: -3°   Ceiling: Unl
Heat Index:   Visibility: 2.5mi
Dew Point:   Wind: 7mph
Humidity: 85%   Direction: 40°NE
Pressure: 30.36"   Gusts: NA
Location:  45.5°N, 72.9°W
Report Text: CYHU 202132Z AUTO 04006KT 2 1/2SM BR CLR M13/M15 A3036 RMK SLP281
Loading
Personal Weather Stations






























Interactive Weather Map New forecast layout! Learn more

10-Day Weather Forecast

Advertisements
Track Severe Weather on mobile